Latest Weather Observations for Barimunya

IDW60801

Issued at 3:35 pm WST Thursday 23 October 2014 (issued every 30 minutes, with the page automatically refreshed every 10 minutes)

About weather observations | Map of weather stations | Latest weather observations for WA | Other Formats
Station Details ID: 505053 Name: BARIMUNYA Lat: -22.67 Lon: 119.16 Height: 629.17 m
Data from the previous 72 hours. | See also: Recent months for locations in Western Australia
Date/Time
WST
Temp
°C
App
Temp
°C
Dew
Point
Rel
Hum
%
Delta-T
°C
Wind Press
QNH
hPa
Press
MSL
hPa
Rain
since 9 am
mm
Dir
 
Spd
km/h
Gust
km/h
Spd
kts
Gust
kts
23/03:30pm 35.6 30.9 5.0 15 16.9 WSW 19 24 10 13 1013.4 1009.3 -
23/03:00pm 36.2 32.1 4.5 14 17.4 SW 15 20 8 11 1013.4 1009.3 -
23/02:30pm 35.4 32.1 4.8 15 16.8 NNW 11 20 6 11 1013.7 1009.6 -
23/02:00pm 35.8 30.9 4.2 14 17.2 W 19 24 10 13 1014.0 1009.8 -
23/01:30pm 35.6 32.4 5.0 15 16.9 SW 11 20 6 11 1014.4 1010.2 -
23/01:00pm 34.9 31.6 6.2 17 16.1 W 13 22 7 12 1014.8 1010.7 -
23/12:30pm 34.0 30.7 6.3 18 15.5 SE 13 22 7 12 1015.1 1011.0 -
23/12:00pm 34.7 30.4 7.7 19 15.4 SSE 20 24 11 13 1015.4 1011.3 -
23/11:30am 32.8 30.2 7.6 21 14.3 SW 11 24 6 13 1016.1 1012.0 -
23/11:00am 31.8 27.8 8.1 23 13.5 SE 19 26 10 14 1016.4 1012.3 -
23/10:30am 31.7 28.0 8.0 23 13.4 S 17 22 9 12 1016.7 1012.6 -
23/10:00am 30.8 27.0 9.1 26 12.5 SSE 19 24 10 13 1017.0 1012.9 -
23/09:30am 29.5 25.0 8.5 27 11.9 SSW 22 28 12 15 1017.1 1013.0 -
23/09:00am 29.7 25.8 9.3 28 11.7 S 20 30 11 16 1017.0 1012.9 0.0
23/08:30am 28.3 23.4 8.6 29 11.1 S 24 30 13 16 1017.1 1013.0 0.0
23/08:00am 27.2 21.9 8.6 31 10.4 S 26 33 14 18 1016.9 1012.8 0.0
23/07:30am 27.1 22.2 8.5 31 10.4 S 24 35 13 19 1016.7 1012.6 0.0
23/07:00am 26.7 22.9 7.7 30 10.5 S 17 24 9 13 1016.5 1012.4 0.0
23/06:30am 25.0 22.3 7.2 32 9.6 S 11 17 6 9 1016.4 1012.3 0.0
23/06:00am 25.2 22.4 6.9 31 9.8 S 11 15 6 8 1016.2 1012.1 0.0
23/05:30am 25.4 22.1 6.6 30 10.1 S 13 19 7 10 1015.8 1011.6 0.0
23/05:00am 25.8 22.1 6.4 29 10.4 S 15 22 8 12 1015.5 1011.4 0.0
23/04:30am 26.1 22.1 6.7 29 10.5 SSW 17 22 9 12 1015.1 1011.0 0.0
23/04:00am 26.5 22.7 6.0 27 10.9 SSW 15 20 8 11 1015.0 1010.9 0.0
23/03:30am 27.1 22.4 6.0 26 11.3 SSW 20 28 11 15 1014.8 1010.7 0.0
23/03:00am 27.4 23.2 5.6 25 11.6 SW 17 22 9 12 1014.9 1010.8 0.0
23/02:30am 27.2 23.7 5.5 25 11.5 SW 13 20 7 11 1014.9 1010.8 0.0
23/02:00am 27.4 24.3 5.6 25 11.6 SW 11 15 6 8 1015.1 1011.0 0.0
23/01:30am 28.1 23.7 5.0 23 12.2 SW 17 22 9 12 1015.2 1011.1 0.0
23/01:00am 28.5 24.2 5.4 23 12.3 SW 17 24 9 13 1015.4 1011.3 0.0
23/12:30am 28.7 23.9 4.9 22 12.6 SW 19 26 10 14 1015.7 1011.5 0.0
23/12:00am 29.1 24.1 4.6 21 13.0 SW 20 28 11 15 1016.1 1012.0 0.0
 
Date/Time
WST
Temp
°C
App
Temp
°C
Dew
Point
Rel
Hum
%
Delta-T
°C
Wind Press
QNH
hPa
Press
MSL
hPa
Rain
since 9 am
mm
Dir
 
Spd
km/h
Gust
km/h
Spd
kts
Gust
kts
22/11:30pm 29.0 24.6 4.5 21 12.9 SW 17 24 9 13 1016.5 1012.4 0.0
22/11:00pm 29.1 25.4 4.6 21 13.0 SSW 13 19 7 10 1016.9 1012.8 0.0
22/10:30pm 29.3 25.0 3.3 19 13.5 SSW 15 20 8 11 1017.2 1013.1 0.0
22/10:00pm 29.7 25.7 2.9 18 13.8 SW 13 20 7 11 1017.4 1013.2 0.0
22/09:30pm 29.9 25.4 2.2 17 14.1 SSW 15 22 8 12 1017.6 1013.5 0.0
22/09:00pm 29.5 26.4 1.1 16 14.2 SSE 7 9 4 5 1017.2 1013.1 0.0
22/08:30pm 30.9 27.3 0.3 14 15.2 SSE 9 11 5 6 1017.0 1012.9 0.0
22/08:00pm 31.2 28.0 0.6 14 15.3 SE 7 9 4 5 1016.9 1012.8 0.0
22/07:30pm 31.8 28.1 0.0 13 15.8 SSE 9 11 5 6 1016.6 1012.5 0.0
22/07:00pm 32.3 27.5 0.4 13 16.0 S 15 19 8 10 1016.3 1012.2 0.0
22/06:30pm 32.7 28.4 0.7 13 16.2 S 13 17 7 9 1016.1 1012.0 0.0
22/06:00pm 33.6 29.4 -0.9 11 17.1 SSE 11 15 6 8 1015.7 1011.5 0.0
22/05:30pm 34.0 29.5 -0.6 11 17.3 SSE 13 17 7 9 1015.4 1011.3 0.0
22/05:00pm 34.3 29.0 -0.4 11 17.4 SSE 17 20 9 11 1015.2 1011.1 0.0
22/04:30pm 34.9 29.7 0.1 11 17.7 SSE 17 20 9 11 1015.2 1011.1 0.0
22/04:00pm 35.3 30.0 -0.9 10 18.2 S 17 26 9 14 1015.2 1011.1 0.0
22/03:30pm 35.7 32.3 -0.6 10 18.3 NW 7 13 4 7 1015.1 1011.0 0.0
22/03:00pm 36.3 31.8 -0.2 10 18.6 WSW 13 20 7 11 1015.1 1011.0 0.0
22/02:30pm 35.9 32.1 -0.5 10 18.4 SW 9 13 5 7 1015.3 1011.2 0.0
22/02:00pm 36.0 32.2 -0.4 10 18.5 N 9 24 5 13 1015.8 1011.6 0.0
22/01:30pm 35.8 31.3 -0.5 10 18.4 WSW 13 24 7 13 1016.2 1012.1 0.0
22/01:00pm 34.7 30.8 -1.4 10 17.9 N 9 20 5 11 1016.6 1012.5 0.0
22/12:30pm 34.7 30.4 -1.4 10 17.9 NNW 11 20 6 11 1016.9 1012.8 0.0
22/12:00pm 34.6 29.6 -1.4 10 17.8 WNW 15 20 8 11 1017.4 1013.2 0.0
22/11:30am 34.2 30.3 -1.7 10 17.7 SSW 9 15 5 8 1017.9 1013.8 0.0
22/11:00am 34.3 30.9 -0.4 11 17.4 WSW 7 15 4 8 1018.2 1014.1 0.0
22/10:30am 33.2 29.1 0.0 12 16.7 S 11 26 6 14 1018.6 1014.5 0.0
22/10:00am 33.3 28.5 0.1 12 16.7 SW 15 24 8 13 1018.8 1014.7 0.0
22/09:30am 32.7 27.4 -0.4 12 16.5 SSW 17 24 9 13 1019.1 1015.0 0.0
22/09:00am 31.9 27.1 0.1 13 15.8 SSW 15 22 8 12 1019.1 1015.0 0.0
22/08:30am 30.8 26.0 0.2 14 15.2 SW 15 20 8 11 1019.1 1015.0 0.0
22/08:00am 28.9 23.9 1.4 17 13.7 WSW 17 20 9 11 1018.8 1014.7 0.0
22/07:30am 26.9 23.0 1.3 19 12.6 W 11 15 6 8 1018.8 1014.7 0.0
22/07:00am 25.6 21.2 0.3 19 12.1 W 13 17 7 9 1018.7 1014.6 0.0
22/06:30am 24.1 20.7 -0.9 19 11.6 WSW 7 17 4 9 1018.7 1014.6 0.0
22/06:00am 23.2 18.9 -1.7 19 11.3 W 11 15 6 8 1018.5 1014.4 0.0
22/05:30am 22.0 18.5 -2.7 19 10.9 W 6 9 3 5 1018.3 1014.2 0.0
22/05:00am 22.5 18.5 -2.2 19 11.0 W 9 11 5 6 1018.0 1013.9 0.0
22/04:30am 22.2 18.7 -3.2 18 11.1 W 6 11 3 6 1017.8 1013.7 0.0
22/04:00am 22.4 19.2 -3.1 18 11.2 W 4 7 2 4 1017.7 1013.6 0.0
22/03:30am 21.9 18.8 -2.7 19 10.8 W 4 9 2 5 1017.5 1013.3 0.0
22/03:00am 21.9 19.2 -2.7 19 10.8 W 2 7 1 4 1017.6 1013.5 0.0
22/02:30am 22.2 18.5 -2.5 19 11.0 W 7 11 4 6 1017.6 1013.5 0.0
22/02:00am 22.7 18.7 -2.1 19 11.1 W 9 13 5 7 1017.7 1013.6 0.0
22/01:30am 23.4 18.3 -2.2 18 11.5 WNW 15 17 8 9 1017.9 1013.8 0.0
22/01:00am 23.4 19.2 -0.8 20 11.2 WNW 11 15 6 8 1018.1 1014.0 0.0
22/12:30am 23.9 20.1 -1.1 19 11.5 WSW 9 13 5 7 1018.2 1014.1 0.0
22/12:00am 24.2 21.8 -0.2 20 11.5 WSW 2 7 1 4 1018.2 1014.1 0.0
 
Date/Time
WST
Temp
°C
App
Temp
°C
Dew
Point
Rel
Hum
%
Delta-T
°C
Wind Press
QNH
hPa
Press
MSL
hPa
Rain
since 9 am
mm
Dir
 
Spd
km/h
Gust
km/h
Spd
kts
Gust
kts
21/11:30pm 24.6 21.3 0.2 20 11.6 WNW 7 11 4 6 1018.4 1014.3 0.0
21/11:00pm 25.7 22.1 0.4 19 12.1 WNW 9 11 5 6 1018.5 1014.4 0.0
21/10:30pm 26.6 22.8 -0.4 17 12.9 WNW 9 15 5 8 1018.5 1014.4 0.0
21/10:00pm 25.8 22.0 -1.1 17 12.6 WSW 9 15 5 8 1018.6 1014.5 0.0
21/09:30pm 26.5 23.5 -2.2 15 13.2 N 4 7 2 4 1018.5 1014.4 0.0
21/09:00pm 27.3 23.3 -2.5 14 13.7 NNW 9 13 5 7 1018.4 1014.3 0.0
21/08:30pm 26.4 22.9 -1.4 16 13.0 NE 7 11 4 6 1018.2 1014.1 0.0
21/08:00pm 28.3 23.7 -3.8 12 14.6 NNE 11 13 6 7 1018.0 1013.9 0.0
21/07:30pm 27.8 23.3 -3.1 13 14.2 N 11 11 6 6 1017.8 1013.7 0.0
21/07:00pm 29.7 25.5 -3.9 11 15.4 NE 9 11 5 6 1017.4 1013.2 0.0
21/06:30pm 30.5 26.8 -3.3 11 15.8 NNE 7 9 4 5 1016.9 1012.8 0.0
21/06:00pm 32.9 29.1 -4.1 9 17.3 N 7 9 4 5 1016.7 1012.6 0.0
21/05:30pm 33.9 30.2 -4.9 8 18.1 ENE 6 11 3 6 1016.5 1012.4 0.0
21/05:00pm 34.8 30.6 -4.3 8 18.5 NNW 9 13 5 7 1016.4 1012.3 0.0
21/04:30pm 35.0 30.0 -4.1 8 18.6 NNW 13 22 7 12 1016.4 1012.3 0.0
21/04:00pm 34.9 29.9 -4.2 8 18.5 W 13 19 7 10 1016.5 1012.4 0.0
21/03:30pm 35.3 29.0 -3.9 8 18.7 WNW 20 35 11 19 1016.5 1012.4 0.0
21/03:00pm 34.1 30.4 -3.2 9 17.9 NE 7 15 4 8 1016.6 1012.5 0.0
21/02:30pm 34.8 30.7 -2.7 9 18.2 WSW 9 20 5 11 1017.0 1012.9 0.0
21/02:00pm 34.4 30.7 -3.0 9 18.0 NNW 7 22 4 12 1017.4 1013.2 0.0
21/01:30pm 33.1 29.1 -2.6 10 17.2 ESE 9 20 5 11 1017.8 1013.7 0.0
21/01:00pm 33.0 27.4 -2.6 10 17.1 WSW 17 20 9 11 1018.4 1014.3 0.0
21/12:30pm 32.1 27.0 -2.0 11 16.5 N 15 28 8 15 1019.1 1015.0 0.0
21/12:00pm 31.8 25.7 -2.3 11 16.3 NNW 20 30 11 16 1019.5 1015.4 0.0
21/11:30am 31.3 27.4 -1.5 12 15.9 NNW 9 19 5 10 1019.9 1015.8 0.0
21/11:00am 32.4 25.8 -0.6 12 16.3 NNE 24 30 13 16 1020.2 1016.1 0.0
21/10:30am 30.7 27.3 -0.8 13 15.4 ENE 7 15 4 8 1020.5 1016.5 0.0
21/10:00am 29.9 25.0 -0.5 14 14.8 ENE 15 24 8 13 1021.0 1016.9 0.0
21/09:30am 30.3 24.8 0.8 15 14.7 E 19 26 10 14 1021.2 1017.1 0.0
21/09:00am 28.9 23.5 2.2 18 13.5 E 20 26 11 14 1021.2 1017.1 0.0
21/08:30am 27.4 21.1 1.8 19 12.8 ESE 24 32 13 17 1021.2 1017.1 0.0
21/08:00am 26.9 21.5 2.7 21 12.2 ESE 20 32 11 17 1021.2 1017.1 0.0
21/07:30am 25.7 20.3 2.4 22 11.6 ESE 20 28 11 15 1021.1 1017.0 0.0
21/07:00am 24.3 21.0 2.5 24 10.8 ESE 9 15 5 8 1020.8 1016.7 0.0
21/06:30am 20.0 17.8 -1.7 23 9.6 CALM 0 0 0 0 1020.4 1016.4 0.0
21/06:00am 16.5 14.6 0.6 34 7.1 CALM 0 0 0 0 1020.0 1015.9 0.0
21/05:30am 16.1 14.0 -0.6 32 7.3 CALM 0 0 0 0 1019.6 1015.5 0.0
21/05:00am 15.7 13.7 -0.1 34 6.9 CALM 0 0 0 0 1019.3 1015.2 0.0
21/04:30am 16.3 14.3 -0.4 32 7.3 CALM 0 0 0 0 1019.1 1015.0 0.0
21/04:00am 16.3 14.4 0.4 34 7.1 CALM 0 0 0 0 1018.8 1014.7 0.0
21/03:30am 16.9 14.9 -0.3 31 7.6 CALM 0 0 0 0 1018.4 1014.3 0.0
21/03:00am 17.3 15.2 -0.9 29 8.0 CALM 0 0 0 0 1018.1 1014.0 0.0
21/02:30am 16.7 14.8 0.4 33 7.3 CALM 0 0 0 0 1018.1 1014.0 0.0
21/02:00am 17.5 15.5 0.2 31 7.8 CALM 0 0 0 0 1018.2 1014.1 0.0
21/01:30am 18.2 16.1 -0.6 28 8.4 CALM 0 0 0 0 1018.3 1014.2 0.0
21/01:00am 20.8 18.7 -1.1 23 9.8 CALM 0 0 0 0 1018.4 1014.3 0.0
21/12:30am 19.4 17.4 -0.1 27 8.9 CALM 0 0 0 0 1018.4 1014.3 0.0
21/12:00am 20.5 18.3 -1.3 23 9.7 CALM 0 0 0 0 1018.4 1014.3 0.0
 
Date/Time
WST
Temp
°C
App
Temp
°C
Dew
Point
Rel
Hum
%
Delta-T
°C
Wind Press
QNH
hPa
Press
MSL
hPa
Rain
since 9 am
mm
Dir
 
Spd
km/h
Gust
km/h
Spd
kts
Gust
kts
20/11:30pm 20.7 18.8 0.5 26 9.4 CALM 0 0 0 0 1018.6 1014.5 0.0
20/11:00pm 21.9 18.7 -0.8 22 10.4 SSE 6 13 3 7 1018.7 1014.6 0.0
20/10:30pm 23.8 19.7 -2.7 17 11.9 SSE 9 11 5 6 1018.8 1014.7 0.0
20/10:00pm 24.5 21.7 -2.9 16 12.3 S 2 9 1 5 1018.8 1014.7 0.0
20/09:30pm 25.7 21.3 -2.8 15 12.9 SSW 11 15 6 8 1018.5 1014.4 0.0
20/09:00pm 27.0 22.3 -1.8 15 13.4 WSW 13 19 7 10 1018.2 1014.1 0.0
20/08:30pm 27.9 23.0 -3.0 13 14.2 NW 13 15 7 8 1017.8 1013.7 0.0
20/08:00pm 28.5 24.0 -3.6 12 14.7 NNW 11 15 6 8 1017.6 1013.5 0.0
20/07:30pm 29.0 24.0 -4.4 11 15.1 NNW 13 17 7 9 1016.9 1012.8 0.0
20/07:00pm 29.5 24.4 -5.3 10 15.6 NNW 13 17 7 9 1016.5 1012.4 0.0
20/06:30pm 30.4 25.0 -4.6 10 16.0 NNW 15 20 8 11 1016.0 1011.8 0.0
20/06:00pm 31.6 26.9 -5.1 9 16.7 NW 11 19 6 10 1015.7 1011.5 0.0
20/05:30pm 33.0 27.3 -4.0 9 17.4 NNW 17 26 9 14 1015.3 1011.2 0.0
20/05:00pm 33.2 27.3 -5.5 8 17.8 NW 17 22 9 12 1015.0 1010.9 0.0
20/04:30pm 33.8 27.4 -5.0 8 18.0 NNW 20 32 11 17 1014.8 1010.7 0.0
20/04:00pm 33.9 26.4 -4.9 8 18.1 NNW 26 39 14 21 1014.7 1010.6 0.0

Other Formats:

Comma delimited format used in spreadsheet applications
http://www.bom.gov.au/fwo/IDW60801/IDW60801.99313.axf

JavaScript Object Notation format (JSON) in row-major order
http://www.bom.gov.au/fwo/IDW60801/IDW60801.99313.json